createdAt,value
2022-07-29T00:00:06.258Z,73.31
2022-07-29T00:01:05.827Z,73.98
2022-07-29T00:02:05.823Z,74.65
2022-07-29T00:03:06.283Z,75.04
2022-07-29T00:04:05.840Z,75.32
2022-07-29T00:05:05.805Z,73.50
2022-07-29T00:06:05.811Z,72.12
2022-07-29T00:07:06.019Z,71.39
2022-07-29T00:08:10.653Z,72.64
2022-07-29T00:09:05.775Z,74.17
2022-07-29T00:10:05.774Z,73.31
2022-07-29T00:11:05.785Z,73.60
2022-07-29T00:12:05.758Z,71.39
2022-07-29T00:13:05.785Z,70.81
2022-07-29T00:14:05.761Z,69.75
2022-07-29T00:15:05.748Z,69.46
2022-07-29T00:16:05.772Z,69.85
2022-07-29T00:17:05.727Z,70.23
2022-07-29T00:18:05.757Z,70.04
2022-07-29T00:19:05.724Z,70.33
2022-07-29T00:20:05.713Z,70.33
2022-07-29T00:21:05.725Z,70.23
2022-07-29T00:22:05.746Z,70.04
2022-07-29T00:23:05.713Z,70.01
2022-07-29T00:24:05.897Z,69.14
2022-07-29T00:25:05.708Z,70.10
2022-07-29T00:26:05.711Z,69.62
2022-07-29T00:27:05.686Z,69.81
2022-07-29T00:28:05.697Z,70.68
2022-07-29T00:29:33.184Z,70.68
2022-07-29T00:30:05.670Z,71.93
2022-07-29T00:31:05.765Z,70.78
2022-07-29T00:32:05.751Z,70.78
2022-07-29T00:33:09.000Z,71.93
2022-07-29T00:34:05.650Z,72.02
2022-07-29T00:35:05.642Z,71.06
2022-07-29T00:36:05.668Z,71.25
2022-07-29T00:37:05.668Z,69.91
2022-07-29T00:38:05.631Z,69.05
2022-07-29T00:39:05.628Z,68.85
2022-07-29T00:44:29.593Z,71.35
2022-07-29T00:45:29.604Z,72.12
2022-07-29T00:46:29.712Z,73.56
2022-07-29T00:47:29.551Z,73.27
2022-07-29T00:48:29.594Z,73.94
2022-07-29T00:49:29.635Z,74.13
2022-07-29T00:50:29.549Z,71.45
2022-07-29T00:51:29.558Z,71.06
2022-07-29T00:52:29.559Z,72.79
2022-07-29T00:53:29.559Z,73.27
2022-07-29T00:54:29.550Z,73.08
2022-07-29T00:55:29.544Z,73.08
2022-07-29T00:56:29.514Z,72.50
2022-07-29T00:57:29.532Z,72.41
2022-07-29T00:58:29.717Z,72.50
2022-07-29T00:59:35.228Z,71.55
2022-07-29T01:00:29.612Z,70.20
2022-07-29T01:01:29.601Z,69.43
2022-07-29T01:02:29.546Z,69.91
2022-07-29T01:03:29.526Z,72.89
2022-07-29T01:04:29.483Z,73.56
2022-07-29T01:05:49.860Z,74.43
2022-07-29T01:06:29.473Z,74.71
2022-07-29T01:07:29.452Z,75.20
2022-07-29T01:08:29.474Z,75.29
2022-07-29T01:09:35.016Z,73.46
2022-07-29T01:10:29.472Z,72.02
2022-07-29T01:11:29.443Z,73.18
2022-07-29T01:12:29.437Z,73.85
2022-07-29T01:13:29.447Z,73.75
2022-07-29T01:14:29.428Z,73.75
2022-07-29T01:15:29.445Z,73.56
2022-07-29T01:16:29.518Z,73.37
2022-07-29T01:17:29.423Z,74.04
2022-07-29T01:18:29.423Z,73.94
2022-07-29T01:19:30.613Z,73.33
2022-07-29T01:20:31.706Z,73.72
2022-07-29T01:21:29.399Z,74.68
2022-07-29T01:22:29.419Z,74.87
2022-07-29T01:23:29.418Z,75.15
2022-07-29T01:24:29.380Z,75.06
2022-07-29T01:25:29.391Z,75.73
2022-07-29T01:26:29.381Z,74.96
2022-07-29T01:27:29.380Z,75.25
2022-07-29T01:28:29.384Z,75.06
2022-07-29T01:29:31.008Z,75.15
2022-07-29T01:30:29.355Z,75.15
2022-07-29T01:31:29.390Z,75.73
2022-07-29T01:32:29.640Z,75.73
2022-07-29T01:33:29.331Z,75.73
2022-07-29T01:34:29.335Z,75.25
2022-07-29T01:35:29.362Z,75.21
2022-07-29T01:36:29.323Z,75.06
2022-07-29T01:37:29.321Z,75.06
2022-07-29T01:38:29.312Z,74.58
2022-07-29T01:39:29.298Z,75.06
2022-07-29T01:40:29.312Z,75.45
2022-07-29T01:41:29.340Z,76.37
2022-07-29T01:42:29.292Z,77.42
2022-07-29T01:43:29.282Z,78.96
2022-07-29T01:44:29.517Z,79.44
2022-07-29T01:45:29.453Z,79.67
2022-07-29T01:46:29.386Z,78.57
2022-07-29T01:47:29.654Z,77.80
2022-07-29T01:48:29.326Z,78.77
2022-07-29T01:49:29.679Z,79.09
2022-07-29T01:50:29.365Z,79.82
2022-07-29T01:51:29.507Z,79.44
2022-07-29T01:52:29.427Z,77.90
2022-07-29T01:53:29.309Z,79.44
2022-07-29T01:54:29.286Z,79.14
2022-07-29T01:55:29.430Z,79.24
2022-07-29T01:56:29.423Z,79.34
2022-07-29T01:57:29.333Z,79.14
2022-07-29T01:58:29.203Z,80.30
2022-07-29T01:59:29.549Z,80.30
2022-07-29T02:00:29.225Z,80.11
2022-07-29T02:01:29.245Z,79.53
2022-07-29T02:02:29.278Z,79.82
2022-07-29T02:05:59.925Z,79.82
2022-07-29T02:06:59.975Z,79.53
2022-07-29T02:07:59.873Z,80.20
2022-07-29T02:09:00.200Z,81.26
2022-07-29T02:48:25.726Z,81.41
2022-07-29T02:49:25.587Z,81.98
2022-07-29T02:50:25.358Z,81.46
2022-07-29T02:51:43.754Z,82.32
2022-07-29T02:52:25.571Z,81.75
2022-07-29T02:53:25.422Z,82.52
2022-07-29T02:54:25.396Z,83.09
2022-07-29T02:55:25.408Z,82.71
2022-07-29T02:56:25.319Z,81.66
2022-07-29T02:57:25.425Z,81.95
2022-07-29T02:58:25.304Z,81.75
2022-07-29T02:59:25.229Z,83.29
2022-07-29T03:00:25.262Z,82.71
2022-07-29T03:01:25.546Z,82.81
2022-07-29T03:02:25.792Z,83.95
2022-07-29T03:03:25.419Z,82.81
2022-07-29T03:04:25.501Z,83.29
2022-07-29T03:05:25.292Z,83.76
2022-07-29T03:06:28.527Z,82.90
2022-07-29T03:07:25.358Z,83.48
2022-07-29T03:08:25.206Z,83.38
2022-07-29T03:09:25.543Z,82.81
2022-07-29T03:10:25.468Z,82.90
2022-07-29T03:11:42.394Z,82.86
2022-07-29T03:12:25.328Z,82.32
2022-07-29T03:13:25.173Z,81.95
2022-07-29T03:14:25.135Z,81.71
2022-07-29T03:15:25.132Z,82.38
2022-07-29T03:16:25.295Z,82.96
2022-07-29T03:17:25.158Z,82.86
2022-07-29T03:18:25.107Z,82.81
2022-07-29T03:19:25.100Z,83.09
2022-07-29T03:20:25.084Z,82.71
2022-07-29T03:21:25.087Z,83.48
2022-07-29T03:22:25.290Z,83.00
2022-07-29T03:23:25.105Z,82.81
2022-07-29T03:24:25.079Z,82.62
2022-07-29T03:25:25.082Z,82.90
2022-07-29T03:26:25.069Z,82.90
2022-07-29T03:27:25.044Z,82.90
2022-07-29T03:28:26.934Z,83.76
2022-07-29T03:29:25.035Z,83.67
2022-07-29T03:30:25.027Z,83.72
2022-07-29T03:31:25.079Z,83.19
2022-07-29T03:32:25.302Z,83.19
2022-07-29T03:33:25.033Z,83.58
2022-07-29T03:34:25.020Z,84.05
2022-07-29T03:35:25.009Z,84.49
2022-07-29T03:36:25.000Z,84.30
2022-07-29T03:37:24.998Z,84.53
2022-07-29T03:38:24.992Z,84.72
2022-07-29T03:39:24.982Z,84.82
2022-07-29T03:40:24.988Z,84.82
2022-07-29T03:41:24.974Z,85.64
2022-07-29T03:51:58.738Z,88.13
2022-07-29T03:52:58.951Z,88.61
2022-07-29T03:53:58.721Z,88.13
2022-07-29T03:54:58.708Z,87.08
2022-07-29T03:55:58.710Z,87.37
2022-07-29T03:56:58.697Z,87.27
2022-07-29T03:57:58.729Z,87.37
2022-07-29T03:58:58.672Z,87.17
2022-07-29T03:59:58.710Z,87.08
2022-07-29T04:00:58.697Z,87.37
2022-07-29T04:01:58.759Z,87.37
2022-07-29T04:02:58.794Z,87.27
2022-07-29T04:03:58.786Z,86.88
2022-07-29T04:04:58.660Z,86.88
2022-07-29T04:05:58.645Z,86.31
2022-07-29T04:06:58.651Z,86.88
2022-07-29T04:07:58.669Z,86.50
2022-07-29T04:08:58.644Z,87.65
2022-07-29T04:09:58.621Z,88.23
2022-07-29T04:10:58.605Z,88.13
2022-07-29T04:12:02.454Z,88.51
2022-07-29T04:12:58.611Z,88.23
2022-07-29T04:13:58.608Z,87.84
2022-07-29T04:14:58.592Z,87.37
2022-07-29T04:15:58.676Z,88.32
2022-07-29T04:16:58.595Z,88.13
2022-07-29T04:17:58.580Z,87.55
2022-07-29T04:18:58.572Z,87.65
2022-07-29T04:19:58.555Z,88.03
2022-07-29T04:20:58.568Z,86.07
2022-07-29T04:21:58.574Z,85.35
2022-07-29T04:22:58.563Z,85.68
2022-07-29T04:23:58.550Z,86.25
2022-07-29T04:25:03.336Z,85.78
2022-07-29T04:25:58.523Z,85.78
2022-07-29T04:26:58.522Z,84.82
2022-07-29T04:27:58.594Z,85.01
2022-07-29T04:28:58.554Z,85.39
2022-07-29T04:29:58.509Z,84.91
2022-07-29T04:30:58.562Z,84.15
2022-07-29T04:31:58.488Z,82.81
2022-07-29T04:32:58.490Z,82.90
2022-07-29T04:33:58.502Z,82.71
2022-07-29T04:34:58.468Z,83.38
2022-07-29T04:35:58.476Z,83.58
2022-07-29T04:36:58.499Z,84.53
2022-07-29T04:37:58.490Z,84.72
2022-07-29T04:38:58.464Z,84.53
2022-07-29T04:39:58.442Z,84.82
2022-07-29T04:40:58.707Z,84.15
2022-07-29T04:41:58.458Z,84.25
2022-07-29T04:42:58.420Z,85.01
2022-07-29T04:43:58.417Z,85.21
2022-07-29T04:44:58.415Z,85.88
2022-07-29T04:45:58.436Z,85.39
2022-07-29T04:46:58.405Z,86.35
2022-07-29T04:47:58.402Z,86.74
2022-07-29T04:48:58.489Z,86.35
2022-07-29T04:49:58.383Z,85.78
2022-07-29T04:50:58.388Z,85.68
2022-07-29T04:51:58.379Z,85.88
2022-07-29T04:52:58.366Z,86.25
2022-07-29T04:53:58.372Z,86.83
2022-07-29T04:54:58.361Z,86.74
2022-07-29T04:55:58.381Z,87.02
2022-07-29T04:56:58.656Z,86.40
2022-07-29T04:57:58.340Z,86.30
2022-07-29T04:58:58.334Z,86.88
2022-07-29T04:59:58.320Z,87.26
2022-07-29T05:00:58.539Z,87.74
2022-07-29T05:01:58.445Z,85.34
2022-07-29T05:02:58.387Z,85.82
2022-07-29T05:04:00.449Z,85.44
2022-07-29T05:04:58.290Z,86.01
2022-07-29T05:05:58.323Z,85.72
2022-07-29T05:06:58.310Z,85.44
2022-07-29T05:07:58.320Z,84.95
2022-07-29T05:08:58.303Z,84.58
2022-07-29T05:09:58.300Z,82.94
2022-07-29T05:10:58.286Z,83.81
2022-07-29T05:11:58.289Z,85.82
2022-07-29T05:12:58.251Z,86.01
2022-07-29T05:13:58.268Z,86.58
2022-07-29T05:15:00.849Z,84.38
2022-07-29T05:15:58.294Z,82.37
2022-07-29T05:16:58.217Z,82.56
2022-07-29T05:17:58.241Z,83.52
2022-07-29T05:18:58.210Z,83.42
2022-07-29T05:19:58.247Z,83.33
2022-07-29T05:20:58.232Z,84.48
2022-07-29T05:21:58.214Z,82.75
2022-07-29T05:22:58.203Z,82.37
2022-07-29T05:23:58.232Z,82.27
2022-07-29T05:24:58.181Z,83.52
2022-07-29T05:25:58.211Z,81.70
2022-07-29T05:26:58.222Z,82.27
2022-07-29T05:27:58.166Z,82.85
2022-07-29T05:28:58.156Z,83.33
2022-07-29T05:29:58.164Z,83.04
2022-07-29T05:30:58.223Z,82.65
2022-07-29T05:31:58.199Z,82.75
2022-07-29T05:32:58.141Z,82.65
2022-07-29T05:33:58.145Z,83.61
2022-07-29T05:34:58.154Z,84.09
2022-07-29T05:36:00.591Z,83.47
2022-07-29T05:36:58.115Z,81.79
2022-07-29T05:37:58.125Z,82.27
2022-07-29T05:38:58.116Z,82.31
2022-07-29T05:39:59.132Z,81.79
2022-07-29T05:40:58.148Z,81.22
2022-07-29T05:41:58.098Z,81.60
2022-07-29T05:42:58.303Z,81.60
2022-07-29T05:43:58.091Z,82.18
2022-07-29T05:44:58.069Z,83.23
2022-07-29T05:45:58.203Z,83.37
2022-07-29T05:46:58.267Z,84.33
2022-07-29T05:47:58.062Z,84.71
2022-07-29T05:48:58.206Z,84.61
2022-07-29T05:49:58.042Z,84.52
2022-07-29T05:50:58.089Z,84.52
2022-07-29T05:51:58.039Z,84.14
2022-07-29T05:52:58.044Z,83.27
2022-07-29T05:53:58.264Z,83.85
2022-07-29T05:54:58.056Z,83.47
2022-07-29T05:55:58.020Z,84.52
2022-07-29T05:56:58.024Z,85.28
2022-07-29T05:57:58.012Z,84.04
2022-07-29T05:58:57.995Z,83.18
2022-07-29T05:59:57.987Z,82.79
2022-07-29T06:00:58.156Z,82.12
2022-07-29T06:01:58.299Z,82.31
2022-07-29T06:02:58.200Z,82.89
2022-07-29T06:03:58.020Z,81.64
2022-07-29T06:04:58.020Z,83.56
2022-07-29T06:05:57.964Z,82.70
2022-07-29T06:06:57.969Z,82.74
2022-07-29T06:07:58.004Z,83.41
2022-07-29T06:08:57.960Z,81.34
2022-07-29T06:09:57.946Z,81.05
2022-07-29T06:10:57.962Z,78.88
2022-07-29T06:11:57.929Z,77.25
2022-07-29T06:12:57.976Z,76.77
2022-07-29T06:13:57.937Z,76.39
2022-07-29T06:14:57.930Z,77.83
2022-07-29T06:15:58.019Z,78.53
2022-07-29T06:16:57.900Z,78.06
2022-07-29T06:17:59.371Z,75.56
2022-07-29T06:18:57.901Z,73.47
2022-07-29T06:19:57.891Z,72.77
2022-07-29T06:20:57.890Z,74.98
2022-07-29T06:21:57.880Z,73.92
2022-07-29T06:22:57.883Z,72.86
2022-07-29T06:23:57.883Z,73.25
2022-07-29T06:24:57.865Z,73.73
2022-07-29T06:25:57.890Z,74.79
2022-07-29T06:26:58.068Z,74.88
2022-07-29T06:27:57.895Z,74.98
2022-07-29T06:28:57.851Z,77.42
2022-07-29T06:29:57.848Z,75.88
2022-07-29T06:30:57.932Z,73.19
2022-07-29T06:31:57.850Z,71.94
2022-07-29T06:32:57.826Z,73.09
2022-07-29T06:33:57.836Z,73.57
2022-07-29T06:35:24.448Z,72.23
2022-07-29T06:35:57.807Z,72.61
2022-07-29T06:36:57.811Z,73.67
2022-07-29T06:37:59.588Z,72.26
2022-07-29T06:38:57.807Z,71.55
2022-07-29T06:39:59.595Z,72.17
2022-07-29T06:40:57.793Z,73.03
2022-07-29T06:41:57.904Z,71.59
2022-07-29T06:42:57.792Z,71.49
2022-07-29T06:43:57.891Z,71.59
2022-07-29T06:44:58.183Z,69.85
2022-07-29T06:45:57.887Z,69.12
2022-07-29T06:46:57.970Z,69.60
2022-07-29T06:47:58.004Z,67.97
2022-07-29T06:48:57.938Z,68.84
2022-07-29T06:49:57.865Z,69.02
2022-07-29T06:50:57.761Z,69.22
2022-07-29T06:52:57.996Z,68.84
2022-07-29T06:54:03.005Z,68.32
2022-07-29T06:54:58.090Z,68.84
2022-07-29T06:55:57.928Z,68.06
2022-07-29T06:56:57.785Z,68.70
2022-07-29T06:57:57.737Z,68.70
2022-07-29T06:58:57.759Z,69.76
2022-07-29T06:59:57.715Z,68.22
2022-07-29T07:00:57.970Z,69.28
2022-07-29T07:01:57.811Z,70.37
2022-07-29T07:02:57.790Z,69.51
2022-07-29T07:03:57.712Z,69.22
2022-07-29T07:04:57.699Z,68.26
2022-07-29T07:05:57.690Z,68.58
2022-07-29T07:06:58.112Z,67.03
2022-07-29T07:07:58.121Z,66.01
2022-07-29T07:08:57.707Z,66.01
2022-07-29T07:09:57.722Z,65.72
2022-07-29T07:10:57.843Z,66.97
2022-07-29T07:11:57.798Z,66.11
2022-07-29T07:12:57.681Z,65.47
2022-07-29T07:14:02.588Z,64.79
2022-07-29T07:14:57.652Z,64.92
2022-07-29T07:15:57.653Z,62.79
2022-07-29T07:16:57.741Z,62.89
2022-07-29T07:17:57.897Z,62.54
2022-07-29T07:18:57.856Z,61.54
2022-07-29T07:19:57.637Z,62.41
2022-07-29T07:20:57.624Z,63.18
2022-07-29T07:21:58.261Z,65.14
2022-07-29T07:22:57.621Z,63.12
2022-07-29T07:23:57.635Z,61.77
2022-07-29T07:24:57.628Z,60.83
2022-07-29T07:25:57.646Z,60.22
2022-07-29T07:26:57.610Z,62.54
2022-07-29T07:27:57.603Z,62.86
2022-07-29T07:28:57.613Z,61.22
2022-07-29T07:29:57.602Z,62.40
2022-07-29T07:30:57.815Z,62.50
2022-07-29T07:32:00.882Z,61.63
2022-07-29T07:32:57.596Z,59.70
2022-07-29T07:33:57.631Z,59.51
2022-07-29T07:34:57.623Z,59.80
2022-07-29T07:35:57.595Z,60.18
2022-07-29T07:36:57.576Z,60.31
2022-07-29T07:37:57.587Z,60.02
2022-07-29T07:38:57.579Z,60.02
2022-07-29T07:39:57.577Z,58.86
2022-07-29T07:40:57.572Z,58.25
2022-07-29T07:41:57.766Z,59.96
2022-07-29T07:42:57.583Z,59.48
2022-07-29T07:43:57.588Z,60.25
2022-07-29T07:45:13.140Z,59.58
2022-07-29T07:45:57.614Z,60.83
2022-07-29T07:46:57.566Z,61.41
2022-07-29T07:47:57.579Z,60.54
2022-07-29T07:48:57.631Z,60.28
2022-07-29T07:49:57.538Z,59.02
2022-07-29T07:50:57.555Z,59.70
2022-07-29T07:51:57.557Z,60.31
2022-07-29T07:52:57.546Z,59.05
2022-07-29T07:53:57.721Z,59.60
2022-07-29T07:54:57.531Z,60.67
2022-07-29T07:56:10.583Z,61.25
2022-07-29T07:56:57.544Z,60.67
2022-07-29T07:57:57.527Z,61.31
2022-07-29T07:58:57.728Z,61.99
2022-07-29T07:59:57.739Z,61.80
2022-07-29T08:00:58.013Z,61.51
2022-07-29T08:01:58.848Z,61.63
2022-07-29T08:02:57.689Z,62.02
2022-07-29T08:03:57.842Z,61.63
2022-07-29T08:04:57.829Z,62.12
2022-07-29T08:06:57.809Z,61.47
2022-07-29T08:07:58.096Z,59.95
2022-07-29T08:09:19.548Z,60.82
2022-07-29T08:09:57.783Z,60.14
2022-07-29T08:10:57.515Z,61.53
2022-07-29T08:11:57.645Z,58.63
2022-07-29T08:12:57.760Z,58.14
2022-07-29T08:13:57.801Z,58.72
2022-07-29T08:14:57.777Z,59.95
2022-07-29T08:15:58.923Z,59.86
2022-07-29T08:16:57.760Z,60.24
2022-07-29T08:17:57.753Z,60.08
2022-07-29T08:18:57.771Z,58.24
2022-07-29T08:19:58.207Z,57.95
2022-07-29T08:20:57.799Z,59.33
2022-07-29T08:21:57.559Z,57.59
2022-07-29T08:22:57.454Z,57.62
2022-07-29T08:24:01.764Z,57.33
2022-07-29T08:24:57.479Z,57.23
2022-07-29T08:25:57.459Z,56.94
2022-07-29T08:26:57.461Z,58.30
2022-07-29T08:27:57.456Z,56.85
2022-07-29T08:28:57.453Z,58.62
2022-07-29T08:29:57.502Z,56.00
2022-07-29T08:30:57.456Z,55.88
2022-07-29T08:31:57.486Z,56.94
2022-07-29T08:32:57.492Z,57.45
2022-07-29T08:33:57.513Z,57.04
2022-07-29T08:34:57.431Z,56.56
2022-07-29T08:35:57.441Z,57.33
2022-07-29T08:36:57.440Z,56.59
2022-07-29T08:37:57.434Z,56.13
2022-07-29T08:38:57.420Z,55.44
2022-07-29T08:39:57.431Z,55.93
2022-07-29T08:40:57.437Z,55.06
2022-07-29T08:41:57.812Z,54.60
2022-07-29T08:42:57.449Z,55.54
2022-07-29T08:43:57.439Z,56.23
2022-07-29T08:44:57.431Z,55.35
2022-07-29T08:45:57.464Z,56.03
2022-07-29T08:46:57.432Z,55.90
2022-07-29T08:47:57.407Z,55.81
2022-07-29T08:48:57.516Z,55.44
2022-07-29T08:49:57.415Z,54.86
2022-07-29T08:50:57.562Z,56.05
2022-07-29T08:51:57.740Z,54.80
2022-07-29T08:52:59.839Z,54.70
2022-07-29T08:53:57.649Z,54.02
2022-07-29T08:54:57.407Z,54.50
2022-07-29T08:55:57.398Z,54.24
2022-07-29T08:56:57.453Z,54.05
2022-07-29T08:57:57.608Z,53.37
2022-07-29T08:58:57.422Z,54.34
2022-07-29T08:59:57.657Z,54.46
2022-07-29T09:00:58.177Z,52.52
2022-07-29T09:01:57.799Z,53.52
2022-07-29T09:02:57.399Z,51.97
2022-07-29T09:03:57.430Z,52.13
2022-07-29T09:04:57.562Z,52.42
2022-07-29T09:05:57.409Z,53.27
2022-07-29T09:06:57.548Z,54.53
2022-07-29T09:07:57.532Z,52.40
2022-07-29T09:08:57.586Z,52.72
2022-07-29T09:09:57.381Z,52.23
2022-07-29T09:10:57.388Z,53.45
2022-07-29T09:11:57.922Z,50.82
2022-07-29T09:12:57.383Z,49.73
2022-07-29T09:13:57.411Z,50.80
2022-07-29T09:14:57.392Z,51.97
2022-07-29T09:15:57.686Z,51.67
2022-07-29T09:16:57.662Z,51.16
2022-07-29T09:17:57.387Z,51.35
2022-07-29T09:18:57.382Z,52.94
2022-07-29T09:19:57.383Z,52.15
2022-07-29T09:20:57.373Z,50.51
2022-07-29T09:21:57.521Z,51.18
2022-07-29T09:22:57.980Z,51.89
2022-07-29T09:23:57.377Z,50.73
2022-07-29T09:24:57.755Z,51.87
2022-07-29T09:25:57.461Z,50.41
2022-07-29T09:26:57.592Z,52.28
2022-07-29T09:27:58.139Z,51.33
2022-07-29T09:28:57.859Z,50.43
2022-07-29T09:29:58.400Z,52.21
2022-07-29T09:30:57.617Z,52.82
2022-07-29T09:31:57.704Z,49.34
2022-07-29T09:32:57.639Z,49.15
2022-07-29T09:33:57.617Z,48.88
2022-07-29T09:34:58.524Z,47.88
2022-07-29T09:35:57.809Z,48.78
2022-07-29T09:36:58.319Z,49.44
2022-07-29T09:37:57.647Z,48.85
2022-07-29T09:38:57.827Z,49.92
2022-07-29T09:39:57.899Z,49.34
2022-07-29T09:40:57.672Z,49.17
2022-07-29T09:41:57.746Z,47.61
2022-07-29T09:42:57.451Z,45.86
2022-07-29T09:43:57.367Z,47.90
2022-07-29T09:44:57.359Z,47.03
2022-07-29T09:45:57.426Z,45.64
2022-07-29T09:46:58.052Z,46.42
2022-07-29T09:47:57.367Z,47.20
2022-07-29T09:48:58.092Z,46.23
2022-07-29T09:49:57.562Z,47.10
2022-07-29T09:50:57.389Z,47.59
2022-07-29T09:51:57.368Z,47.88
2022-07-29T09:52:57.393Z,46.51
2022-07-29T09:53:57.371Z,46.81
2022-07-29T09:54:57.363Z,46.64
2022-07-29T09:55:57.381Z,47.34
2022-07-29T09:56:57.753Z,46.59
2022-07-29T09:57:57.364Z,45.22
2022-07-29T09:58:57.378Z,45.90
2022-07-29T09:59:57.374Z,43.95
2022-07-29T10:00:57.416Z,43.95
2022-07-29T10:01:57.777Z,46.10
2022-07-29T10:02:57.385Z,44.66
2022-07-29T10:03:57.373Z,43.08
2022-07-29T10:04:57.403Z,44.73
2022-07-29T10:05:57.362Z,45.49
2022-07-29T10:07:03.952Z,43.91
2022-07-29T10:07:57.702Z,45.47
2022-07-29T10:08:57.563Z,45.64
2022-07-29T10:09:57.371Z,45.74
2022-07-29T10:10:57.366Z,45.95
2022-07-29T10:11:57.568Z,46.71
2022-07-29T10:12:57.378Z,46.93
2022-07-29T10:13:57.376Z,45.86
2022-07-29T10:14:57.383Z,46.56
2022-07-29T10:15:57.416Z,47.34
2022-07-29T10:16:57.374Z,45.08
2022-07-29T10:17:57.374Z,45.64
2022-07-29T10:18:57.400Z,46.11
2022-07-29T10:20:00.217Z,46.20
2022-07-29T10:20:57.382Z,46.40
2022-07-29T10:21:58.228Z,47.96
2022-07-29T10:22:57.369Z,48.17
2022-07-29T10:24:01.118Z,46.32
2022-07-29T10:24:57.364Z,45.95
2022-07-29T10:25:57.573Z,44.40
2022-07-29T10:26:57.386Z,43.50
2022-07-29T10:27:57.390Z,44.48
2022-07-29T10:28:57.384Z,44.67
2022-07-29T10:29:57.373Z,45.25
2022-07-29T10:30:57.675Z,45.06
2022-07-29T10:31:57.665Z,45.45
2022-07-29T10:32:57.388Z,44.38
2022-07-29T10:33:57.384Z,44.86
2022-07-29T10:34:57.620Z,46.11
2022-07-29T10:35:57.417Z,45.52
2022-07-29T10:36:57.653Z,45.74
2022-07-29T10:37:57.364Z,45.54
2022-07-29T10:38:57.385Z,45.54
2022-07-29T10:39:57.584Z,45.52
2022-07-29T10:40:57.450Z,46.32
2022-07-29T10:41:57.792Z,45.14
2022-07-29T10:42:57.382Z,45.91
2022-07-29T10:43:57.378Z,46.78
2022-07-29T10:44:57.370Z,46.69
2022-07-29T10:45:57.407Z,46.20
2022-07-29T10:46:57.446Z,46.78
2022-07-29T10:47:57.382Z,46.20
2022-07-29T10:48:57.425Z,46.69
2022-07-29T10:49:57.372Z,46.30
2022-07-29T10:50:57.415Z,46.03
2022-07-29T10:51:58.057Z,45.32
2022-07-29T10:52:57.368Z,45.91
2022-07-29T10:53:57.369Z,45.54
2022-07-29T10:54:57.376Z,45.06
2022-07-29T10:55:57.363Z,45.54
2022-07-29T10:56:57.733Z,45.35
2022-07-29T10:57:57.617Z,44.57
2022-07-29T10:58:57.436Z,46.54
2022-07-29T10:59:57.363Z,45.37
2022-07-29T11:00:57.590Z,44.59
2022-07-29T11:02:27.826Z,44.49
2022-07-29T11:02:57.567Z,44.30
2022-07-29T11:03:57.381Z,44.48
2022-07-29T11:04:57.365Z,45.54
2022-07-29T11:05:59.948Z,44.69
2022-07-29T11:06:57.366Z,46.27
2022-07-29T11:07:57.562Z,45.98
2022-07-29T11:08:57.392Z,45.12
2022-07-29T11:09:57.380Z,43.85
2022-07-29T11:10:57.454Z,45.42
2022-07-29T11:11:57.699Z,43.59
2022-07-29T11:13:41.420Z,43.08
2022-07-29T11:14:39.786Z,44.34
2022-07-29T11:15:39.780Z,44.44
2022-07-29T11:16:39.773Z,43.27
2022-07-29T11:17:51.909Z,43.93
2022-07-29T11:18:39.820Z,43.84
2022-07-29T11:19:40.385Z,43.64
2022-07-29T11:20:39.782Z,43.91
2022-07-29T11:21:55.365Z,44.59
2022-07-29T11:22:43.052Z,44.98
2022-07-29T11:23:39.777Z,44.23
2022-07-29T11:24:50.255Z,43.52
2022-07-29T11:26:39.810Z,44.20
2022-07-29T11:27:39.918Z,43.84
2022-07-29T11:28:39.777Z,44.59
2022-07-29T11:29:39.846Z,43.54
2022-07-29T11:30:42.410Z,44.49
2022-07-29T11:32:29.460Z,44.98
2022-07-29T11:34:27.974Z,46.13
2022-07-29T11:35:37.371Z,45.45
2022-07-29T11:36:28.299Z,44.76
2022-07-29T11:38:27.675Z,45.94
2022-07-29T11:39:27.173Z,44.67
2022-07-29T11:40:27.177Z,46.54
2022-07-29T11:41:27.362Z,46.73
2022-07-29T11:42:32.380Z,45.47
2022-07-29T11:43:27.181Z,45.57
2022-07-29T11:46:27.199Z,45.10
2022-07-29T11:47:27.363Z,44.49
2022-07-29T11:48:29.785Z,45.29
2022-07-29T11:50:27.269Z,45.18
2022-07-29T11:51:32.694Z,45.86
2022-07-29T11:52:27.170Z,45.47
2022-07-29T11:53:29.241Z,45.67
2022-07-29T11:54:27.415Z,45.67
2022-07-29T11:55:32.264Z,46.64
2022-07-29T11:56:27.189Z,45.95
2022-07-29T11:57:36.605Z,45.67
2022-07-29T11:58:27.370Z,45.47
2022-07-29T11:59:33.476Z,44.40
2022-07-29T12:00:27.184Z,45.08
2022-07-29T12:01:27.171Z,45.86
2022-07-29T12:02:37.567Z,45.57
2022-07-29T12:03:33.545Z,45.86
2022-07-29T12:04:27.181Z,45.74
2022-07-29T12:05:36.922Z,47.69
2022-07-29T12:06:27.165Z,46.91
2022-07-29T12:07:01.291Z,44.20
2022-07-29T12:07:02.109Z,46.54
2022-07-29T12:07:34.841Z,47.69
2022-07-29T12:08:27.167Z,48.56
2022-07-29T12:09:27.174Z,47.30
2022-07-29T12:10:30.407Z,47.80
2022-07-29T12:11:27.169Z,47.78
2022-07-29T12:12:27.159Z,45.95
2022-07-29T12:13:37.470Z,46.42
2022-07-29T12:14:27.177Z,47.98
2022-07-29T12:15:31.496Z,46.50
2022-07-29T12:16:29.551Z,47.56
2022-07-29T12:17:27.161Z,46.98
2022-07-29T12:18:27.167Z,47.05
2022-07-29T12:19:27.179Z,46.67
2022-07-29T12:20:27.182Z,48.93
2022-07-29T12:21:29.135Z,48.34
2022-07-29T12:22:27.178Z,49.32
2022-07-29T12:23:29.520Z,47.08
2022-07-29T12:24:27.545Z,46.78
2022-07-29T12:25:34.627Z,48.25
2022-07-29T12:26:27.160Z,47.76
2022-07-29T12:27:29.475Z,46.98
2022-07-29T12:28:27.487Z,47.27
2022-07-29T12:29:33.784Z,47.37
2022-07-29T12:30:27.153Z,47.96
2022-07-29T12:31:43.988Z,47.56
2022-07-29T12:32:27.205Z,48.15
2022-07-29T12:33:27.159Z,47.27
2022-07-29T12:34:27.360Z,48.05
2022-07-29T12:35:27.142Z,47.96
2022-07-29T12:36:27.158Z,47.25
2022-07-29T12:37:35.759Z,47.74
2022-07-29T12:38:27.149Z,49.58
2022-07-29T12:39:31.308Z,48.32
2022-07-29T12:40:27.158Z,49.39
2022-07-29T12:41:27.303Z,49.39
2022-07-29T12:42:27.173Z,49.00
2022-07-29T12:43:27.159Z,49.10
2022-07-29T12:44:27.349Z,49.10
2022-07-29T12:45:27.147Z,49.29
2022-07-29T12:46:27.226Z,49.87
2022-07-29T12:47:27.150Z,49.49
2022-07-29T12:48:27.348Z,50.36
2022-07-29T12:49:27.285Z,49.49
2022-07-29T12:50:27.154Z,49.19
2022-07-29T12:51:27.137Z,49.68
2022-07-29T12:52:27.146Z,49.29
2022-07-29T12:53:27.131Z,47.34
2022-07-29T12:54:27.137Z,48.32
2022-07-29T12:55:27.152Z,48.03
2022-07-29T12:56:42.381Z,48.51
2022-07-29T12:57:27.551Z,49.10
2022-07-29T12:58:27.139Z,48.71
2022-07-29T12:59:27.129Z,48.22
2022-07-29T13:00:27.229Z,48.78
2022-07-29T13:01:27.327Z,49.87
2022-07-29T13:02:27.180Z,50.34
2022-07-29T13:03:27.136Z,50.53
2022-07-29T13:04:27.322Z,50.63
2022-07-29T13:05:27.144Z,49.76
2022-07-29T13:06:27.138Z,50.53
2022-07-29T13:07:54.051Z,50.24
2022-07-29T13:08:27.131Z,50.34
2022-07-29T13:09:27.122Z,51.21
2022-07-29T13:10:27.124Z,50.14
2022-07-29T13:11:27.341Z,49.27
2022-07-29T13:12:27.145Z,49.85
2022-07-29T13:13:27.131Z,50.43
2022-07-29T13:14:27.122Z,49.95
2022-07-29T13:15:27.155Z,50.24
2022-07-29T13:16:27.142Z,50.63
2022-07-29T13:17:27.112Z,50.56
2022-07-29T13:18:27.141Z,51.40
2022-07-29T13:19:27.155Z,49.95
2022-07-29T13:20:27.130Z,49.46
2022-07-29T13:21:27.110Z,49.95
2022-07-29T13:22:27.108Z,49.46
2022-07-29T13:23:27.130Z,50.14
2022-07-29T13:24:27.102Z,50.63
2022-07-29T13:26:19.527Z,50.53
2022-07-29T13:27:19.520Z,50.73
2022-07-29T13:28:19.530Z,50.34
2022-07-29T13:29:19.514Z,50.63
2022-07-29T13:30:19.513Z,51.31
2022-07-29T13:31:19.504Z,51.50
2022-07-29T13:32:19.516Z,51.21
2022-07-29T13:33:19.499Z,50.24
2022-07-29T13:34:19.534Z,49.85
2022-07-29T13:35:19.512Z,50.73
2022-07-29T13:36:19.509Z,50.43
2022-07-29T13:37:19.489Z,50.24
2022-07-29T13:38:19.535Z,50.24
2022-07-29T13:39:19.503Z,50.24
2022-07-29T13:40:19.527Z,50.53
2022-07-29T13:41:19.489Z,50.43
2022-07-29T13:42:19.517Z,51.21
2022-07-29T13:43:19.488Z,50.53
2022-07-29T13:44:19.512Z,50.56
2022-07-29T13:45:19.525Z,50.36
2022-07-29T13:46:19.590Z,51.92
2022-07-29T13:47:19.479Z,50.65
2022-07-29T13:48:19.488Z,49.78
2022-07-29T13:49:19.639Z,50.09
2022-07-29T13:50:19.521Z,50.48
2022-07-29T13:51:19.697Z,50.07
2022-07-29T13:52:19.502Z,50.56
2022-07-29T13:53:19.519Z,50.16
2022-07-29T13:54:19.509Z,49.39
2022-07-29T13:55:19.475Z,49.49